Time;durP1;ratioP1;P1;durP2;ratioP2;P2;SDS_P1;SDS_P2;PMS_P1;PMS_P2;Temp;Humidity;BMP_temperature;BMP_pressure;BME280_temperature;BME280_humidity;BME280_pressure;Samples;Min_cycle;Max_cycle;Signal;HPM_P1;HPM_P2
2021/04/20 03:32:34;;;;;;;37.00;22.27;;;;;;;8.04;58.85;98888.66;7387965;23;20326;-79
2021/04/20 03:35:59;;;;;;;36.20;23.60;;;;;;;8.36;57.66;98888.25;6949077;28;20268;-79
2021/04/20 03:39:21;;;;;;;33.60;22.43;;;;;;;8.00;57.13;98900.78;6947841;28;20237;-78
2021/04/20 03:42:48;;;;;;;38.23;24.57;;;;;;;8.01;57.75;98890.88;6948827;28;20259;-77
2021/04/20 03:46:12;;;;;;;36.70;25.30;;;;;;;7.62;59.32;98888.50;6949120;28;20205;-78
2021/04/20 03:49:37;;;;;;;45.00;26.17;;;;;;;7.68;59.73;98878.84;6949407;28;20674;-78
2021/04/20 03:53:01;;;;;;;42.40;24.13;;;;;;;7.57;59.80;98861.38;6948388;28;20227;-79
2021/04/20 03:56:26;;;;;;;39.53;24.40;;;;;;;7.45;59.97;98845.91;6946940;28;20305;-78
2021/04/20 03:59:48;;;;;;;39.00;24.00;;;;;;;7.56;60.28;98885.69;6947754;28;20238;-79
2021/04/20 04:03:10;;;;;;;37.17;24.30;;;;;;;7.94;59.87;98889.94;6949119;28;20223;-79
2021/04/20 04:06:34;;;;;;;40.77;24.77;;;;;;;8.13;59.20;98884.00;6939123;28;20211;-79
2021/04/20 04:09:55;;;;;;;34.90;24.00;;;;;;;8.14;59.10;98886.50;6950433;28;20206;-80
2021/04/20 04:13:17;;;;;;;35.67;23.03;;;;;;;8.26;57.93;98874.28;6948716;28;20230;-79
2021/04/20 04:16:40;;;;;;;35.80;22.93;;;;;;;8.10;58.77;98869.09;6948982;28;20200;-79
2021/04/20 04:20:04;;;;;;;36.37;24.63;;;;;;;7.89;59.00;98873.59;6933501;28;20207;-79
2021/04/20 04:23:30;;;;;;;37.73;23.33;;;;;;;7.97;58.76;98885.06;6946720;28;20217;-79
2021/04/20 04:26:55;;;;;;;40.00;23.03;;;;;;;8.11;58.60;98884.19;6946958;28;20207;-77
2021/04/20 04:30:18;;;;;;;38.63;25.67;;;;;;;8.27;57.50;98892.06;6947551;28;20207;-78
2021/04/20 04:33:40;;;;;;;39.53;24.47;;;;;;;8.06;58.35;98894.66;6941215;28;20659;-79
2021/04/20 04:37:02;;;;;;;41.67;25.33;;;;;;;7.62;59.13;98874.22;6944316;28;20219;-79
2021/04/20 04:40:24;;;;;;;43.63;25.30;;;;;;;8.02;59.44;98887.97;6948057;28;20221;-77
2021/04/20 04:43:46;;;;;;;36.37;24.23;;;;;;;8.32;58.45;98894.19;6948763;28;20682;-79
2021/04/20 04:47:07;;;;;;;39.17;22.90;;;;;;;7.74;58.51;98876.28;6949333;28;20243;-78
2021/04/20 04:50:30;;;;;;;40.10;24.30;;;;;;;7.87;59.24;98889.88;6938574;28;20431;-81
2021/04/20 04:53:51;;;;;;;41.93;25.57;;;;;;;8.12;59.55;98893.06;6948958;28;20575;-82
2021/04/20 04:57:14;;;;;;;41.17;26.10;;;;;;;7.98;59.67;98888.56;6951686;28;20210;-83
2021/04/20 05:00:36;;;;;;;37.87;24.20;;;;;;;7.81;59.45;98874.50;6952984;28;20238;-81
2021/04/20 05:04:05;;;;;;;39.30;25.80;;;;;;;7.97;59.95;98895.78;6956315;28;20203;-81
2021/04/20 05:07:27;;;;;;;41.90;25.87;;;;;;;7.92;59.38;98870.50;6956040;28;20199;-81
2021/04/20 05:10:48;;;;;;;41.70;26.07;;;;;;;8.29;59.22;98847.03;6956328;28;20683;-82
2021/04/20 05:14:11;;;;;;;44.47;29.37;;;;;;;8.53;58.75;98870.88;6947413;28;20257;-79
2021/04/20 05:17:32;;;;;;;41.73;27.83;;;;;;;8.59;58.32;98906.88;6946976;28;20268;-82
2021/04/20 05:20:54;;;;;;;36.33;23.13;;;;;;;8.43;58.02;98904.44;6947005;28;20586;-79
2021/04/20 05:24:15;;;;;;;40.30;24.60;;;;;;;8.45;58.90;98897.03;6946282;28;20205;-80
2021/04/20 05:27:36;;;;;;;39.20;24.53;;;;;;;8.57;58.83;98892.81;6945542;28;20305;-79
2021/04/20 05:30:58;;;;;;;34.63;23.20;;;;;;;8.67;57.98;98883.41;6935414;28;20242;-79
2021/04/20 05:34:20;;;;;;;49.13;27.00;;;;;;;8.43;59.07;98873.03;6944883;28;20210;-79
2021/04/20 05:37:44;;;;;;;38.53;24.77;;;;;;;8.87;58.31;98878.22;6946008;28;20663;-79
2021/04/20 05:41:07;;;;;;;40.50;25.33;;;;;;;9.15;57.29;98896.09;6946229;28;20265;-79
2021/04/20 05:44:32;;;;;;;45.07;25.93;;;;;;;9.47;56.40;98884.75;6945791;28;20211;-79
2021/04/20 05:47:54;;;;;;;35.00;23.03;;;;;;;9.11;58.32;98895.63;6945875;28;20211;-79
2021/04/20 05:51:16;;;;;;;32.17;22.50;;;;;;;9.31;58.71;98903.88;6946057;28;20231;-79
2021/04/20 05:54:37;;;;;;;32.57;22.87;;;;;;;9.97;57.58;98892.50;6945497;28;20222;-78
2021/04/20 05:57:59;;;;;;;29.27;21.20;;;;;;;10.57;56.56;98896.13;6944949;28;20241;-80
2021/04/20 06:01:21;;;;;;;46.67;29.23;;;;;;;11.36;54.29;98902.47;6945063;28;20242;-77
2021/04/20 06:04:45;;;;;;;28.90;21.70;;;;;;;11.28;52.76;98881.94;6945029;28;20210;-78
2021/04/20 06:08:06;;;;;;;30.77;22.90;;;;;;;10.53;53.48;98880.56;6944934;28;20206;-78
2021/04/20 06:11:27;;;;;;;36.83;24.67;;;;;;;9.72;58.05;98907.50;6943131;28;20581;-78
2021/04/20 06:14:50;;;;;;;31.77;22.57;;;;;;;10.33;57.59;98902.06;6944331;28;20210;-78
2021/04/20 06:18:11;;;;;;;30.53;21.57;;;;;;;11.03;56.36;98912.44;6945037;28;20211;-78
2021/04/20 06:21:35;;;;;;;31.40;22.23;;;;;;;11.24;55.41;98901.44;6944246;28;20240;-78
2021/04/20 06:24:56;;;;;;;33.33;23.50;;;;;;;11.43;56.11;98906.00;6939351;28;20219;-78
2021/04/20 06:28:17;;;;;;;31.00;22.60;;;;;;;11.12;56.23;98911.19;6939814;28;20206;-78
2021/04/20 06:31:39;;;;;;;30.47;24.03;;;;;;;10.91;56.55;98874.44;6943738;28;20230;-78
2021/04/20 06:35:00;;;;;;;32.40;23.70;;;;;;;10.69;58.40;98908.00;6943858;28;20214;-78
2021/04/20 06:38:24;;;;;;;34.57;23.13;;;;;;;10.86;57.87;98919.25;6944058;28;20211;-78
2021/04/20 06:41:48;;;;;;;29.63;22.63;;;;;;;10.74;58.27;98896.63;6943959;28;20231;-79
2021/04/20 06:45:12;;;;;;;32.73;23.53;;;;;;;11.13;58.76;98912.84;6943669;28;20554;-78
2021/04/20 06:48:41;;;;;;;31.47;22.10;;;;;;;11.66;57.77;98910.00;6934752;28;20219;-78
2021/04/20 06:52:05;;;;;;;30.53;22.33;;;;;;;12.00;56.21;98912.44;6938400;28;20639;-79
2021/04/20 06:55:35;;;;;;;31.47;22.50;;;;;;;12.52;55.29;98911.41;6919015;28;20211;-79
2021/04/20 06:59:05;;;;;;;29.97;22.27;;;;;;;12.68;55.52;98913.66;6922355;28;20214;-78
2021/04/20 07:02:32;;;;;;;26.73;20.00;;;;;;;13.43;53.47;98889.19;6920917;28;20293;-79
2021/04/20 07:05:59;;;;;;;22.47;19.10;;;;;;;13.90;52.79;98877.72;6921595;28;20200;-77
2021/04/20 07:09:23;;;;;;;27.47;19.00;;;;;;;14.45;51.97;98893.78;6921681;28;20307;-78
2021/04/20 07:12:47;;;;;;;22.30;17.57;;;;;;;15.03;48.72;98902.19;6922534;28;20323;-78
2021/04/20 07:16:17;;;;;;;25.53;20.17;;;;;;;13.57;52.00;98896.19;6921599;28;20206;-79
2021/04/20 07:20:13;;;;;;;25.83;20.20;;;;;;;13.45;53.87;98904.19;6929543;28;20210;-79
2021/04/20 07:23:48;;;;;;;23.67;20.40;;;;;;;13.50;53.71;98900.81;6910016;28;20682;-79
2021/04/20 07:27:20;;;;;;;25.87;20.27;;;;;;;13.84;53.63;98919.25;6920255;28;20208;-79
2021/04/20 07:30:47;;;;;;;29.17;22.70;;;;;;;13.87;54.67;98910.69;6946247;28;20228;-79
2021/04/20 07:34:14;;;;;;;28.57;22.63;;;;;;;13.84;53.58;98884.88;6947531;28;20214;-79
2021/04/20 07:37:41;;;;;;;35.23;29.20;;;;;;;13.75;54.07;98882.69;6948109;28;20286;-78
2021/04/20 07:41:09;;;;;;;32.80;26.50;;;;;;;14.59;53.05;98902.59;6948358;28;20254;-78
2021/04/20 07:44:40;;;;;;;29.80;23.97;;;;;;;14.33;51.78;98887.47;6948509;28;20195;-78
2021/04/20 07:48:10;;;;;;;27.87;22.77;;;;;;;14.99;51.09;98895.59;6948154;28;20255;-78
2021/04/20 07:51:38;;;;;;;25.53;20.33;;;;;;;15.88;48.92;98880.78;6948465;28;20303;-78
2021/04/20 07:55:07;;;;;;;24.07;19.97;;;;;;;16.20;48.00;98882.03;6947173;28;20673;-80
2021/04/20 07:58:35;;;;;;;26.93;22.37;;;;;;;16.41;48.45;98889.59;6920897;28;20567;-78
2021/04/20 08:02:00;;;;;;;25.50;21.17;;;;;;;16.77;48.15;98896.59;6921272;28;20243;-78
2021/04/20 08:05:29;;;;;;;22.47;19.53;;;;;;;16.60;47.71;98874.75;6920724;28;20211;-78
2021/04/20 08:08:53;;;;;;;23.67;19.40;;;;;;;16.81;47.48;98881.44;6921416;28;20306;-78
2021/04/20 08:12:19;;;;;;;24.83;20.20;;;;;;;17.07;46.68;98876.22;6920292;28;20289;-78
2021/04/20 08:15:43;;;;;;;25.47;21.23;;;;;;;16.54;48.02;98880.31;6920419;28;20232;-78
2021/04/20 08:19:06;;;;;;;25.63;20.97;;;;;;;16.86;47.12;98878.81;6921304;28;20614;-78
2021/04/20 08:22:28;;;;;;;24.33;19.37;;;;;;;17.32;46.80;98871.22;6930457;28;20251;-78
2021/04/20 08:25:54;;;;;;;25.50;19.40;;;;;;;17.64;45.58;98866.84;6946998;28;20224;-78
2021/04/20 08:29:20;;;;;;;23.80;19.93;;;;;;;18.18;44.37;98857.03;6948156;28;20207;-78
2021/04/20 08:32:44;;;;;;;29.53;24.57;;;;;;;17.24;45.37;98866.19;6953002;28;20702;-79
2021/04/20 08:36:09;;;;;;;24.57;20.30;;;;;;;16.89;46.45;98859.25;6947233;28;20210;-78
2021/04/20 08:39:38;;;;;;;25.77;20.07;;;;;;;16.68;46.60;98855.31;6947896;28;20218;-78
2021/04/20 08:43:07;;;;;;;23.07;19.60;;;;;;;16.89;46.75;98859.25;6946881;28;20231;-78
2021/04/20 08:46:48;;;;;;;21.93;19.10;;;;;;;17.52;45.48;98860.66;6949849;28;20211;-78
2021/04/20 08:50:12;;;;;;;21.23;17.60;;;;;;;18.50;42.82;98858.84;6949128;28;20205;-78
2021/04/20 08:53:45;;;;;;;20.93;15.83;;;;;;;17.18;43.98;98853.53;6947250;28;20218;-78
2021/04/20 08:57:16;;;;;;;22.57;16.20;;;;;;;18.20;42.65;98844.78;6943847;28;20261;-78
2021/04/20 09:00:41;;;;;;;18.53;16.40;;;;;;;18.44;41.43;98854.41;6946113;28;20314;-79
2021/04/20 09:04:12;;;;;;;19.30;17.23;;;;;;;18.59;41.18;98829.19;6946748;28;20200;-78
2021/04/20 09:07:43;;;;;;;17.97;15.60;;;;;;;17.99;41.84;98852.94;6946590;28;20577;-78
2021/04/20 09:11:11;;;;;;;18.63;15.30;;;;;;;18.20;42.12;98833.88;6946434;28;20230;-79
2021/04/20 09:14:36;;;;;;;19.67;16.40;;;;;;;18.21;41.91;98831.97;6946196;28;20241;-78
2021/04/20 09:18:02;;;;;;;16.73;14.93;;;;;;;19.32;38.87;98840.34;6942284;28;20203;-78
2021/04/20 09:21:29;;;;;;;19.60;16.47;;;;;;;18.85;39.16;98834.69;6939909;28;20257;-78
2021/04/20 09:24:57;;;;;;;18.43;16.20;;;;;;;19.27;39.39;98832.94;6946037;28;20211;-78
2021/04/20 09:28:20;;;;;;;17.70;15.37;;;;;;;18.43;40.04;98838.28;6945996;28;20207;-79
2021/04/20 09:31:51;;;;;;;17.83;15.60;;;;;;;19.51;37.38;98793.22;6938755;23;20629;-79
2021/04/20 09:35:14;;;;;;;18.80;15.23;;;;;;;18.07;40.06;98749.66;6890152;28;20200;-80
2021/04/20 09:38:38;;;;;;;16.83;14.07;;;;;;;18.75;38.63;98749.88;6890374;28;20208;-79
2021/04/20 09:42:00;;;;;;;16.70;14.33;;;;;;;19.01;38.69;98836.50;6889872;28;20232;-80
2021/04/20 09:45:24;;;;;;;19.17;15.70;;;;;;;17.96;38.66;98657.84;6890089;28;20215;-80
2021/04/20 09:48:52;;;;;;;17.10;14.37;;;;;;;19.44;37.45;98756.22;6890120;28;20291;-79
2021/04/20 09:52:17;;;;;;;17.87;14.80;;;;;;;18.59;38.30;98764.50;6890201;28;20624;-79
2021/04/20 09:55:42;;;;;;;16.23;14.30;;;;;;;18.59;39.09;98760.91;6889794;28;20212;-79
2021/04/20 09:59:09;;;;;;;18.43;15.00;;;;;;;18.78;38.20;98833.22;6890052;28;20627;-79
2021/04/20 10:02:52;;;;;;;15.90;13.80;;;;;;;18.44;39.28;98821.66;6889812;28;20212;-81
2021/04/20 10:06:33;;;;;;;17.03;13.83;;;;;;;17.62;39.46;98729.13;6881297;28;20575;-81
2021/04/20 10:10:03;;;;;;;16.77;13.37;;;;;;;18.49;37.55;98818.16;6862833;28;20204;-80
2021/04/20 10:13:56;;;;;;;14.40;12.30;;;;;;;19.40;37.03;98826.22;6887208;28;20297;-80
2021/04/20 10:17:23;;;;;;;11.37;10.13;;;;;;;19.82;34.97;98740.34;6888930;28;20535;-79
2021/04/20 10:20:49;;;;;;;13.60;11.37;;;;;;;19.62;34.80;98811.34;6888850;28;20694;-75
2021/04/20 10:24:17;;;;;;;13.97;11.10;;;;;;;18.60;36.15;98798.06;6888943;28;20189;-75
2021/04/20 10:27:38;;;;;;;13.03;11.20;;;;;;;19.29;36.07;98803.41;6888822;28;20228;-78
2021/04/20 10:31:02;;;;;;;11.20;9.90;;;;;;;19.66;34.19;98749.56;6889197;28;20678;-80
2021/04/20 10:34:24;;;;;;;11.00;9.37;;;;;;;20.43;32.70;98798.97;6889199;28;20212;-77
2021/04/20 10:37:47;;;;;;;11.00;9.90;;;;;;;19.73;33.56;98784.88;6888992;28;20530;-77
2021/04/20 10:41:23;;;;;;;12.70;10.03;;;;;;;20.57;33.61;98792.72;6883343;28;20225;-76
2021/04/20 10:44:48;;;;;;;11.87;9.67;;;;;;;20.23;32.60;98761.34;6887721;28;20259;-78
2021/04/20 10:48:13;;;;;;;10.57;9.17;;;;;;;21.17;31.08;98777.22;6888202;28;20550;-78
2021/04/20 10:51:37;;;;;;;8.60;7.70;;;;;;;20.01;32.01;98707.88;6888879;28;20199;-78
2021/04/20 10:55:00;;;;;;;10.10;9.10;;;;;;;20.84;32.01;98774.16;6885160;28;20291;-78
2021/04/20 10:58:23;;;;;;;11.17;8.87;;;;;;;21.23;32.69;98776.13;6834737;28;20218;-77
2021/04/20 11:01:45;;;;;;;11.50;9.07;;;;;;;21.70;31.42;98738.25;6888730;28;20221;-77
2021/04/20 11:05:08;;;;;;;10.20;9.20;;;;;;;22.61;29.23;98757.97;6887124;28;20236;-76
2021/04/20 11:08:37;;;;;;;10.77;9.13;;;;;;;21.54;29.18;98620.56;6881993;28;20236;-76
2021/04/20 11:11:58;;;;;;;10.20;9.20;;;;;;;22.14;28.99;98645.03;6888481;28;20207;-77
2021/04/20 11:15:24;;;;;;;10.10;9.00;;;;;;;22.72;29.03;98666.91;6888071;28;20218;-77
2021/04/20 11:18:49;;;;;;;10.57;8.77;;;;;;;23.18;28.64;98725.97;6873011;28;20252;-75
2021/04/20 11:22:13;;;;;;;10.17;9.07;;;;;;;22.20;28.97;98663.91;6887217;28;20232;-76
2021/04/20 11:25:36;;;;;;;10.07;8.50;;;;;;;22.22;31.13;98738.63;6887224;28;20203;-76
2021/04/20 11:29:00;;;;;;;9.40;8.40;;;;;;;21.33;30.10;98586.06;6876234;28;20235;-76
2021/04/20 11:32:24;;;;;;;9.17;8.27;;;;;;;22.31;29.15;98671.00;6888053;28;20223;-75
2021/04/20 11:35:46;;;;;;;9.00;8.20;;;;;;;22.50;28.21;98721.50;6881787;28;20276;-75
2021/04/20 11:39:10;;;;;;;9.60;8.60;;;;;;;22.34;29.55;98651.22;6860388;28;20790;-76
2021/04/20 11:42:37;;;;;;;10.53;9.10;;;;;;;22.91;27.92;98645.88;6877815;28;20693;-76
2021/04/20 11:45:59;;;;;;;9.50;8.20;;;;;;;22.60;27.67;98646.41;6885487;28;20282;-76
2021/04/20 11:49:24;;;;;;;9.27;8.47;;;;;;;22.45;27.21;98679.47;6892944;28;20670;-76
2021/04/20 11:52:47;;;;;;;8.57;7.77;;;;;;;21.48;28.44;98603.28;6891353;28;20217;-76
2021/04/20 11:56:09;;;;;;;8.80;7.90;;;;;;;21.65;28.64;98605.72;6891096;28;20749;-76
2021/04/20 11:59:31;;;;;;;9.40;8.50;;;;;;;20.67;30.03;98690.53;6891372;28;20212;-76
2021/04/20 12:02:52;;;;;;;9.27;8.33;;;;;;;20.79;30.43;98705.63;6891203;28;20236;-76
2021/04/20 12:06:14;;;;;;;9.40;8.40;;;;;;;19.95;30.63;98580.31;6890885;28;20209;-76
2021/04/20 12:09:39;;;;;;;8.87;7.97;;;;;;;20.44;30.28;98556.84;6891054;28;20214;-76
2021/04/20 12:13:01;;;;;;;10.07;8.93;;;;;;;19.47;32.14;98698.28;6890903;28;20210;-76
2021/04/20 12:16:25;;;;;;;9.40;8.13;;;;;;;20.40;31.54;98613.28;6876639;28;20205;-76
2021/04/20 12:19:46;;;;;;;8.47;7.57;;;;;;;20.75;30.62;98577.66;6864530;28;20288;-76
2021/04/20 12:23:08;;;;;;;9.20;8.17;;;;;;;19.71;31.49;98636.59;6863601;28;20306;-76
2021/04/20 12:26:31;;;;;;;9.10;8.20;;;;;;;19.75;30.91;98526.34;6863654;28;20670;-76
2021/04/20 12:29:53;;;;;;;9.17;8.27;;;;;;;20.54;30.13;98535.78;6863761;28;20580;-76
2021/04/20 12:33:27;;;;;;;8.67;7.70;;;;;;;21.63;29.86;98682.81;6863466;28;20338;-76
2021/04/20 12:36:50;;;;;;;9.03;8.13;;;;;;;19.96;31.08;98554.59;6868265;28;20196;-76
2021/04/20 12:40:15;;;;;;;9.23;8.27;;;;;;;20.22;31.17;98685.78;6890762;28;20313;-76
2021/04/20 12:43:39;;;;;;;9.10;8.20;;;;;;;20.76;30.95;98689.72;6891404;28;20288;-76
2021/04/20 12:47:01;;;;;;;9.00;8.10;;;;;;;21.06;30.92;98684.28;6889862;28;20527;-76
2021/04/20 12:50:26;;;;;;;8.27;7.47;;;;;;;;;;6890034;28;20206;-76
2021/04/20 12:53:48;;;;;;;8.73;7.60;;;;;;;20.11;30.49;98623.88;6889194;28;20266;-76
2021/04/20 12:57:15;;;;;;;9.20;7.27;;;;;;;20.83;30.76;98662.88;6889623;28;20218;-76
2021/04/20 13:00:37;;;;;;;9.43;8.33;;;;;;;20.16;31.01;98587.50;6890346;28;20220;-76
2021/04/20 13:03:58;;;;;;;8.83;7.93;;;;;;;20.98;29.74;98479.25;6889901;28;20319;-76
2021/04/20 13:07:25;;;;;;;8.03;7.23;;;;;;;23.16;27.74;98653.06;6888839;28;20200;-79
2021/04/20 13:10:53;;;;;;;9.37;8.30;;;;;;;22.03;28.25;98528.94;6888312;28;20616;-79
2021/04/20 13:14:20;;;;;;;9.37;8.47;;;;;;;21.76;30.88;98608.16;6888312;28;20211;-78
2021/04/20 13:17:43;;;;;;;10.20;8.73;;;;;;;21.29;30.79;98590.44;6890295;28;20194;-78
2021/04/20 13:21:05;;;;;;;11.77;9.73;;;;;;;21.45;29.94;98586.56;6890745;28;20365;-78
2021/04/20 13:24:27;;;;;;;10.37;9.37;;;;;;;20.95;30.53;98542.03;6889027;28;20698;-76
2021/04/20 13:27:50;;;;;;;10.73;9.63;;;;;;;20.50;31.10;98512.75;6880950;28;20563;-76
2021/04/20 13:31:16;;;;;;;10.63;9.53;;;;;;;21.67;30.36;98650.19;6888262;28;20212;-76
2021/04/20 13:34:40;;;;;;;15.47;9.73;;;;;;;21.56;30.16;98643.03;6881853;28;20210;-76
2021/04/20 13:38:02;;;;;;;10.83;9.70;;;;;;;20.18;32.56;98579.84;6888490;28;20587;-76
2021/04/20 13:41:23;;;;;;;12.53;10.47;;;;;;;20.56;33.56;98637.66;6888556;28;20237;-75
2021/04/20 13:44:49;;;;;;;11.23;9.60;;;;;;;19.59;34.56;98608.66;6913452;28;20725;-76
2021/04/20 13:48:11;;;;;;;13.43;11.53;;;;;;;18.90;36.63;98656.31;6915843;28;20593;-76
2021/04/20 13:51:37;;;;;;;11.83;10.63;;;;;;;19.77;35.61;98649.22;6915408;28;20217;-75
2021/04/20 13:55:00;;;;;;;14.37;12.03;;;;;;;18.54;35.77;98494.13;6915234;28;20216;-75
2021/04/20 13:58:25;;;;;;;15.27;11.83;;;;;;;19.01;36.62;98656.13;6915567;28;20214;-76
2021/04/20 14:01:50;;;;;;;13.90;12.10;;;;;;;18.27;36.80;98520.63;6915282;28;20227;-75
2021/04/20 14:05:12;;;;;;;12.87;11.57;;;;;;;19.16;35.29;98609.75;6912258;28;20207;-76
2021/04/20 14:08:33;;;;;;;12.53;10.73;;;;;;;19.77;34.66;98632.78;6886304;28;20377;-76
2021/04/20 14:12:01;;;;;;;12.00;10.70;;;;;;;19.43;34.53;98569.47;6888025;28;20205;-76
2021/04/20 14:15:27;;;;;;;12.70;11.40;;;;;;;19.21;36.13;98604.38;6887246;28;20212;-76
2021/04/20 14:18:52;;;;;;;12.10;9.60;;;;;;;19.12;36.80;98605.09;6887773;28;20549;-76
2021/04/20 14:22:15;;;;;;;12.43;11.13;;;;;;;18.11;39.17;98518.03;6888036;28;20303;-75
2021/04/20 14:25:38;;;;;;;12.90;11.00;;;;;;;18.84;38.87;98572.66;6887167;28;20222;-76
2021/04/20 14:29:05;;;;;;;13.40;11.20;;;;;;;17.99;38.45;98460.91;6887618;28;20667;-76
2021/04/20 14:32:29;;;;;;;14.20;11.70;;;;;;;17.42;40.04;98560.69;6887431;28;20252;-76
2021/04/20 14:35:51;;;;;;;12.27;10.60;;;;;;;18.42;39.94;98627.25;6887519;28;20216;-76
2021/04/20 14:39:15;;;;;;;11.97;10.67;;;;;;;18.46;38.76;98548.38;6887515;28;20224;-76
2021/04/20 14:42:37;;;;;;;12.50;10.50;;;;;;;18.47;36.87;98545.41;6887446;28;20232;-76
2021/04/20 14:45:59;;;;;;;12.57;10.57;;;;;;;19.58;34.97;98634.38;6886871;28;20239;-76
2021/04/20 14:49:24;;;;;;;11.03;9.20;;;;;;;19.00;36.06;98470.59;6870031;28;20216;-76
2021/04/20 14:52:45;;;;;;;13.57;11.30;;;;;;;19.76;34.80;98612.81;6883792;28;20220;-76
2021/04/20 14:56:08;;;;;;;11.77;9.97;;;;;;;19.24;35.72;98526.47;6886483;28;20205;-76
2021/04/20 14:59:30;;;;;;;12.37;10.83;;;;;;;19.90;34.15;98553.75;6886920;28;20220;-76
2021/04/20 15:02:51;;;;;;;10.97;9.37;;;;;;;18.38;37.29;98533.31;6887061;28;20228;-76
2021/04/20 15:06:21;;;;;;;11.87;10.07;;;;;;;19.24;34.87;98460.88;6886848;28;20212;-75
2021/04/20 15:09:48;;;;;;;11.80;9.60;;;;;;;20.75;33.67;98599.59;6886917;28;20212;-75
2021/04/20 15:13:17;;;;;;;12.10;10.40;;;;;;;19.97;34.00;98550.75;6886758;28;20268;-75
2021/04/20 15:16:39;;;;;;;10.00;9.00;;;;;;;20.17;33.72;98540.69;6888234;28;20557;-75
2021/04/20 15:20:02;;;;;;;11.10;9.67;;;;;;;19.52;31.82;98474.06;6889985;28;20215;-75
2021/04/20 15:23:26;;;;;;;9.73;8.83;;;;;;;19.44;34.26;98537.47;6892991;28;20247;-75
2021/04/20 15:26:49;;;;;;;10.00;8.93;;;;;;;20.91;32.78;98590.25;6891424;28;20272;-78
2021/04/20 15:30:17;;;;;;;10.27;8.73;;;;;;;20.22;32.44;98537.94;6892260;28;20214;-76
2021/04/20 15:33:41;;;;;;;10.93;9.27;;;;;;;19.78;33.72;98523.09;6884050;28;20580;-76
2021/04/20 15:37:10;;;;;;;11.43;9.10;;;;;;;20.89;31.18;98581.50;6865718;28;20256;-77
2021/04/20 15:40:45;;;;;;;10.57;8.53;;;;;;;19.49;32.20;98458.19;6866430;28;20193;-76
2021/04/20 15:44:09;;;;;;;9.30;8.40;;;;;;;20.78;31.38;98586.16;6865062;28;20239;-76
2021/04/20 15:47:37;;;;;;;10.77;8.93;;;;;;;19.01;32.49;98532.34;6872384;28;20681;-76
2021/04/20 15:51:01;;;;;;;9.57;8.23;;;;;;;20.78;31.34;98597.91;6891919;28;20220;-76
2021/04/20 15:54:22;;;;;;;10.53;8.73;;;;;;;20.99;31.33;98593.25;6891563;28;20245;-76
2021/04/20 15:57:46;;;;;;;8.87;7.93;;;;;;;20.81;30.09;98522.56;6891089;28;20607;-77
2021/04/20 16:01:08;;;;;;;10.83;8.63;;;;;;;20.01;31.64;98454.16;6891537;28;20263;-77
2021/04/20 16:04:32;;;;;;;10.13;8.23;;;;;;;20.42;32.15;98584.53;6891167;28;20308;-76
2021/04/20 16:07:54;;;;;;;10.13;8.13;;;;;;;19.61;32.23;98456.03;6890942;28;20682;-76
2021/04/20 16:11:21;;;;;;;9.17;8.20;;;;;;;20.44;32.00;98592.44;6864495;28;20209;-75
2021/04/20 16:14:45;;;;;;;9.23;8.20;;;;;;;20.32;31.37;98515.22;6882596;28;20268;-73
2021/04/20 16:18:08;;;;;;;9.03;8.13;;;;;;;20.13;31.29;98441.06;6890730;28;20210;-74
2021/04/20 16:21:34;;;;;;;9.47;8.10;;;;;;;21.15;30.77;98567.47;6890654;28;20342;-74
2021/04/20 16:24:55;;;;;;;8.50;7.27;;;;;;;20.48;30.92;98525.91;6890468;28;20247;-74
2021/04/20 16:28:19;;;;;;;10.07;9.03;;;;;;;19.17;31.57;98452.06;6890127;28;20731;-75
2021/04/20 16:31:42;;;;;;;9.30;7.97;;;;;;;19.94;31.22;98444.56;6890230;28;20618;-75
2021/04/20 16:35:04;;;;;;;10.37;8.80;;;;;;;20.48;30.20;98459.34;6887626;28;20209;-75
2021/04/20 16:39:00;;;;;;;8.50;7.53;;;;;;;20.67;29.61;98444.78;6887395;28;20232;-75
2021/04/20 16:42:30;;;;;;;8.30;7.43;;;;;;;21.01;29.59;98536.25;6793181;28;20243;-75
2021/04/20 16:46:04;;;;;;;8.53;7.67;;;;;;;21.23;30.18;98589.66;6889876;28;20678;-75
2021/04/20 16:49:37;;;;;;;7.97;7.17;;;;;;;20.51;29.30;98486.19;6886761;28;20571;-75
2021/04/20 16:53:26;;;;;;;9.87;7.27;;;;;;;20.84;29.44;98535.72;6893741;28;20650;-75
2021/04/20 16:57:01;;;;;;;7.13;6.43;;;;;;;21.41;29.25;98569.00;6880564;28;20204;-75
2021/04/20 17:00:38;;;;;;;8.70;7.47;;;;;;;20.92;28.86;98561.78;6888552;28;20214;-75
2021/04/20 17:04:09;;;;;;;7.83;7.07;;;;;;;18.85;30.63;98391.28;6889560;28;20219;-75
2021/04/20 17:07:39;;;;;;;6.90;6.20;;;;;;;19.89;28.79;98395.31;6889297;28;20697;-75
2021/04/20 17:11:10;;;;;;;8.33;7.43;;;;;;;20.90;28.03;98525.59;6889295;28;20267;-75
2021/04/20 17:14:50;;;;;;;9.93;6.47;;;;;;;19.45;29.31;98388.75;6889923;28;20654;-74
2021/04/20 17:18:40;;;;;;;6.90;6.20;;;;;;;20.43;28.92;98497.69;6889380;28;20208;-75
2021/04/20 17:22:15;;;;;;;7.33;6.37;;;;;;;20.28;28.72;98500.47;6888238;28;20236;-74
2021/04/20 17:25:39;;;;;;;7.63;6.83;;;;;;;20.11;28.75;98497.97;6889038;28;20212;-74
2021/04/20 17:29:09;;;;;;;7.60;6.80;;;;;;;19.26;29.58;98426.72;6889071;28;20205;-75
2021/04/20 17:32:39;;;;;;;7.40;6.63;;;;;;;20.49;29.40;98565.91;6888295;28;20262;-75
2021/04/20 17:36:02;;;;;;;10.03;7.73;;;;;;;20.26;28.87;98448.69;6881741;28;20222;-75
2021/04/20 17:39:25;;;;;;;7.40;6.57;;;;;;;21.20;28.55;98561.97;6887744;28;20220;-75
2021/04/20 17:43:07;;;;;;;8.13;6.50;;;;;;;20.28;29.20;98493.03;6888624;28;20257;-75
2021/04/20 17:46:37;;;;;;;7.90;6.80;;;;;;;20.67;29.79;98572.72;6888777;28;20209;-75
2021/04/20 17:50:14;;;;;;;8.30;6.43;;;;;;;20.18;29.98;98514.97;6888491;28;20659;-75
2021/04/20 17:53:52;;;;;;;8.27;6.87;;;;;;;19.71;30.76;98464.25;6882729;28;20253;-75
2021/04/20 17:57:17;;;;;;;8.60;6.83;;;;;;;20.52;31.05;98583.69;6887461;28;20212;-78
2021/04/20 18:00:48;;;;;;;6.87;6.10;;;;;;;20.26;32.33;98591.06;6887635;28;20616;-78
2021/04/20 18:04:13;;;;;;;6.77;6.17;;;;;;;18.71;33.98;98401.06;6872038;28;20339;-75
2021/04/20 18:07:47;;;;;;;7.77;6.07;;;;;;;19.54;35.61;98600.41;6888638;28;20296;-75
2021/04/20 18:11:14;;;;;;;7.40;5.53;;;;;;;19.55;35.31;98597.44;6871209;28;20208;-74
2021/04/20 18:14:43;;;;;;;6.67;5.83;;;;;;;18.59;36.26;98477.75;6888445;28;20611;-76
2021/04/20 18:18:17;;;;;;;6.07;5.13;;;;;;;18.84;35.11;98592.63;6870480;28;20212;-76
2021/04/20 18:21:40;;;;;;;7.63;5.90;;;;;;;18.38;35.62;98546.13;6887389;28;20228;-76
2021/04/20 18:25:09;;;;;;;11.97;8.33;;;;;;;18.31;36.82;98598.22;6887170;28;20205;-76
2021/04/20 18:28:41;;;;;;;12.60;8.87;;;;;;;18.17;37.86;98612.50;6888841;28;20231;-75
2021/04/20 18:32:06;;;;;;;9.73;8.03;;;;;;;17.82;39.01;98612.13;6888988;28;20310;-75
2021/04/20 18:35:32;;;;;;;9.43;8.00;;;;;;;16.82;39.81;98524.44;6888949;28;20213;-75
2021/04/20 18:38:59;;;;;;;11.40;8.30;;;;;;;16.22;41.20;98520.78;6871330;28;20208;-74
2021/04/20 18:42:30;;;;;;;9.60;8.20;;;;;;;16.22;40.87;98474.53;6888461;28;20245;-74
2021/04/20 18:46:15;;;;;;;9.03;7.83;;;;;;;16.10;41.99;98539.09;6887780;28;20231;-76
2021/04/20 18:49:45;;;;;;;10.10;8.10;;;;;;;15.44;42.69;98473.78;6861059;28;20282;-77
2021/04/20 18:53:39;;;;;;;11.23;8.10;;;;;;;16.15;42.77;98614.53;6844408;28;20268;-77
2021/04/20 18:57:05;;;;;;;10.00;7.57;;;;;;;15.22;43.64;98529.00;6860229;28;20210;-77
2021/04/20 19:00:30;;;;;;;13.50;6.87;;;;;;;15.76;44.03;98615.41;6861627;28;20246;-77
2021/04/20 19:04:01;;;;;;;7.73;7.03;;;;;;;15.37;44.08;98594.50;6861834;28;20230;-77
2021/04/20 19:07:27;;;;;;;9.00;7.87;;;;;;;15.38;45.05;98647.78;6868708;28;20210;-77
2021/04/20 19:10:54;;;;;;;7.90;7.10;;;;;;;15.22;44.17;98556.16;6888749;28;20209;-78
2021/04/20 19:14:27;;;;;;;8.93;7.37;;;;;;;13.85;45.88;98465.63;6870552;28;20210;-78
2021/04/20 19:18:25;;;;;;;9.00;8.10;;;;;;;14.10;45.60;98485.22;6888689;28;20643;-79
2021/04/20 19:21:57;;;;;;;9.87;7.97;;;;;;;14.25;45.56;98516.28;6888241;28;20216;-78
2021/04/20 19:25:32;;;;;;;8.20;7.40;;;;;;;15.47;44.78;98668.09;6870693;28;20313;-77
2021/04/20 19:29:13;;;;;;;10.00;7.70;;;;;;;14.47;45.07;98563.47;6888669;28;20208;-76